x

Halifax Harbour (44258) Wave Buoy

4:00am - Fri 26th May 2017 All times are EDT. -4 hours from GMT.

  • Sig Wave height 5.9ft
  • Peak Period 10s
  • Wind
    22mph, 31mph gusts
  • Sea Temp 43°f
  • Air Temp 42°f
  • Sea Pressure 1012.1mb
  • Halifax Harbour
  • Halifax Harbour

More Historic Weather Station data

Upgrade to MSW Pro to gain access to the past 30 days of data for over 8000 Wavebouys and Weather Stations around the globe.

Join Pro

Comparision Forecast

View Surf forecast
   
Fri 05/26 4:00am 6ft 10s 22 31 mph 1012.1mb 43f 42f
3:00am 6ft 9s 20 22 mph 1013.6mb 44f 42f
2:00am 5.5ft 9s 25 29 mph 1013.1mb 44f 42f
1:00am 6ft 9s 22 27 mph 1013.8mb 44f 42f
12:00am 5.5ft 9s 22 25 mph 1014.7mb 44f 43f
Thu 05/25 11:00pm 5ft 9s 22 27 mph 1015.1mb 44f 43f
10:00pm 5.5ft 9s 20 25 mph 1016.1mb 44f 43f
9:00pm 5.5ft 10s 20 22 mph 1016.8mb 44f 43f
8:00pm 5.5ft 9s 13 18 mph 1017.7mb 44f 44f
7:00pm 4.5ft 10s 13 16 mph 1017.5mb 44f 44f
6:00pm 5ft 9s 13 16 mph 1017.2mb 44f 44f
5:00pm 4.5ft 9s 9 11 mph 1017.8mb 44f 44f
4:00pm 4.5ft 10s 13 18 mph 1017.6mb 44f 44f
3:00pm 4.5ft 10s 18 22 mph 1017.7mb 44f 44f
2:00pm 4.5ft 10s 18 20 mph 1018mb 44f 45f
1:00pm 4.5ft 8s 11 13 mph 1018.2mb 45f 45f
12:00pm 3.5ft 9s 11 13 mph 1018.3mb 45f 45f
11:00am 4ft 9s 11 13 mph 1018.3mb 45f 45f
10:00am 4ft 8s 11 13 mph 1018.2mb 45f 45f
9:00am 4ft 8s 9 11 mph 1017.7mb 44f 45f
8:00am 3.5ft 7s 7 9 mph 1017.1mb 44f 46f
7:00am 4ft 8s 7 9 mph 1016.6mb 44f 46f
6:00am 3.5ft 8s 2 4 mph 1015.8mb 44f 46f
5:00am 4ft 8s 4 7 mph 1015.2mb 44f 46f
4:00am 3.5ft 9s 2 4 mph 1014.9mb 44f 45f
3:00am 4ft 9s 2 2 mph 1014.9mb 44f 46f
2:00am 4.5ft 9s 4 7 mph 1014.8mb 44f 48f
1:00am 4ft 9s 4 4 mph 1013.8mb 44f 47f
12:00am 4.5ft 7s 2 4 mph 1013.1mb 44f 47f
Wed 05/24 11:00pm 4ft 8s 2 4 mph 1013mb 44f 46f
10:00pm 4ft 8s 2 4 mph 1012.7mb 44f 47f
9:00pm 4.5ft 8s 2 2 mph 1012.4mb 45f 46f
8:00pm 4.5ft 8s 9 11 mph 1012.4mb 45f 47f
7:00pm 4.5ft 8s 7 7 mph 1011mb 45f 46f
6:00pm 4.5ft 8s 9 11 mph 1010.6mb 45f 46f
5:00pm 4ft 7s 7 11 mph 1010.6mb 45f 46f
4:00pm 5ft 8s 7 7 mph 1010.1mb 45f 46f
3:00pm 4.5ft 8s 9 11 mph 1010.4mb 44f 46f
2:00pm 5ft 9s 9 11 mph 1010.2mb 44f 46f
1:00pm 5ft 9s 9 11 mph 1010.3mb 44f 46f
12:00pm 5ft 8s 7 9 mph 1010mb 44f 46f
11:00am 5ft 8s 9 9 mph 1010.1mb 44f 46f
10:00am 5ft 9s 7 9 mph 1010mb 44f 45f
9:00am 5ft 8s 4 9 mph 1009.6mb 44f 45f
8:00am 5ft 8s 4 7 mph 1009.3mb 44f 45f
7:00am 6ft 9s 2 4 mph 1008.7mb 44f 45f
6:00am 5ft 9s 4 4 mph 1008.4mb 44f 46f
5:00am 4.5ft 9s 7 7 mph 1008.3mb 44f 47f
4:00am 4.5ft 8s 4 7 mph 1007.6mb 44f 47f
3:00am 4.5ft 7s 7 9 mph 1007.6mb 44f 47f
2:00am 4ft 7s 4 7 mph 1007.6mb 44f 48f
1:00am 3.5ft 6s 4 7 mph 1007.8mb 44f 46f
12:00am 3ft 5s 4 7 mph 1008mb 44f 45f
Tue 05/23 11:00pm 3ft 6s 2 4 mph 1008.3mb 44f 46f
10:00pm 2.5ft 5s 4 4 mph 1008.5mb 44f 47f
9:00pm 3ft 5s 4 4 mph 1009mb 44f 46f
8:00pm 3.5ft 5s 7 7 mph 1009mb 44f 46f
7:00pm 3.5ft 5s 7 7 mph 1009.4mb 43f 46f
6:00pm 4.5ft 5s 11 16 mph 1009.8mb 43f 47f
5:00pm 4.5ft 5s 20 25 mph 1009.5mb 44f 47f
4:00pm 4ft 5s 22 27 mph 1010.2mb 44f 47f
3:00pm 3.5ft 4s 22 25 mph 1011.2mb 44f 47f
2:00pm 3.5ft 4s 22 25 mph 1012.2mb 44f 47f
1:00pm 2.5ft 4s 20 25 mph 1013.3mb 44f 46f
12:00pm 1.6ft 3s 16 18 mph 1014.6mb 44f 45f
11:00am 1.3ft 7s 16 18 mph 1015.6mb 44f 45f
10:00am 1ft 7s 13 16 mph 1016.8mb 44f 44f
9:00am 1ft 4s 11 13 mph 1017.8mb 44f 44f
8:00am 1.3ft 4s 7 9 mph 1018.5mb 44f 45f
7:00am 1ft 7s 4 4 mph 1018.7mb 44f 45f
6:00am 1ft 4s 7 7 mph 1018.8mb 44f 45f
5:00am 1ft 3s 4 7 mph 1018.6mb 44f 45f
4:00am 1.3ft 2s 11 16 mph 1018.4mb 44f 46f
3:00am 1ft 4s 11 18 mph 1018.6mb 44f 47f
2:00am 1ft 4s 9 11 mph 1018.1mb 44f 47f
1:00am 1ft 4s 7 9 mph 1018.1mb 44f 47f
12:00am 1ft 5s 11 13 mph 1019mb 44f 47f
Mon 05/22 11:00pm 1.3ft 5s 9 11 mph 1019.5mb 44f 47f
10:00pm 1.6ft 4s 7 9 mph 1019.7mb 44f 52f
9:00pm 2ft 4s 13 18 mph 1019.6mb 44f 50f
8:00pm 2.5ft 4s 16 18 mph 1019.1mb 44f 49f
7:00pm 2ft 4s 16 18 mph 1018.8mb 44f 49f
6:00pm 1.6ft 4s 11 13 mph 1019mb 45f 49f
5:00pm 1.6ft 4s 13 16 mph 1019.1mb 45f 50f
4:00pm 1ft 3s 13 16 mph 1019.4mb 45f 49f
3:00pm 0.7ft 3s 11 13 mph 1020mb 45f 49f
2:00pm 1ft 2s 13 16 mph 1020.6mb 45f 49f
1:00pm 0.7ft 2s 13 13 mph 1021.4mb 45f 49f
12:00pm 0.7ft 6s 11 13 mph 1021.6mb 46f 49f
11:00am 0.7ft 4s 9 11 mph 1022.1mb 46f 49f
10:00am 0.7ft 7s 4 9 mph 1022.9mb 45f 54f